Time;durP1;ratioP1;P1;durP2;ratioP2;P2;SDS_P1;SDS_P2;PMS_P1;PMS_P2;Temp;Humidity;BMP_temperature;BMP_pressure;BME280_temperature;BME280_humidity;BME280_pressure;Samples;Min_cycle;Max_cycle;Signal;HPM_P1;HPM_P2
2023/12/14 00:02:12;;;;;;;1.38;1.00;;;9.00;99.90;;;;;;5008176;28;20085;-80
2023/12/14 00:04:41;;;;;;;1.58;1.30;;;8.90;99.90;;;;;;5004733;28;20125;-80
2023/12/14 00:07:07;;;;;;;4.38;1.20;;;9.00;99.90;;;;;;5009094;28;20058;-82
2023/12/14 00:09:34;;;;;;;3.00;1.40;;;8.90;99.90;;;;;;5004553;28;20042;-81
2023/12/14 00:12:01;;;;;;;4.53;1.30;;;8.90;99.90;;;;;;5010659;28;20049;-80
2023/12/14 00:14:27;;;;;;;2.38;1.10;;;8.90;99.90;;;;;;5007409;28;20042;-81
2023/12/14 00:16:54;;;;;;;4.47;1.20;;;8.90;99.90;;;;;;5007818;28;20041;-80
2023/12/14 00:19:23;;;;;;;2.38;1.42;;;8.90;99.90;;;;;;5006130;28;20042;-81
2023/12/14 00:21:50;;;;;;;1.27;1.17;;;8.90;99.90;;;;;;5006044;28;20053;-81
2023/12/14 00:24:17;;;;;;;2.72;1.27;;;8.90;99.90;;;;;;5005883;28;20054;-81
2023/12/14 00:26:44;;;;;;;1.48;1.20;;;8.90;99.90;;;;;;5012322;28;20053;-80
2023/12/14 00:29:10;;;;;;;3.33;1.13;;;8.80;99.90;;;;;;5010343;28;20054;-81
2023/12/14 00:31:37;;;;;;;4.78;1.15;;;8.80;99.90;;;;;;5011904;28;20450;-81
2023/12/14 00:34:04;;;;;;;2.10;1.08;;;8.80;99.90;;;;;;5019900;28;20048;-79
2023/12/14 00:36:31;;;;;;;3.47;1.50;;;8.90;99.90;;;;;;5007571;28;20041;-77
2023/12/14 00:38:57;;;;;;;4.72;1.58;;;8.90;99.90;;;;;;5002913;28;20084;-79
2023/12/14 00:41:24;;;;;;;3.67;1.75;;;8.90;99.90;;;;;;5006757;28;20103;-80
2023/12/14 00:43:51;;;;;;;3.13;1.42;;;8.90;99.90;;;;;;5007741;28;20123;-79
2023/12/14 00:46:18;;;;;;;1.80;1.10;;;8.90;99.90;;;;;;5004170;28;20101;-80
2023/12/14 00:48:44;;;;;;;2.95;1.40;;;8.90;99.90;;;;;;5007188;28;20100;-79
2023/12/14 00:51:11;;;;;;;3.55;1.40;;;8.90;99.90;;;;;;5003949;28;20762;-81
2023/12/14 00:53:38;;;;;;;1.90;1.27;;;9.00;99.90;;;;;;5008747;28;20046;-79
2023/12/14 00:56:08;;;;;;;1.17;1.08;;;9.00;99.90;;;;;;5002933;28;20042;-82
2023/12/14 00:58:34;;;;;;;2.58;1.40;;;9.00;99.90;;;;;;5010248;28;20088;-80
2023/12/14 01:01:01;;;;;;;3.13;1.20;;;9.00;99.90;;;;;;5011461;28;20054;-79
2023/12/14 01:03:28;;;;;;;3.47;1.40;;;9.00;99.90;;;;;;5006012;28;20042;-80
2023/12/14 01:05:55;;;;;;;2.65;1.35;;;9.00;99.90;;;;;;5005958;28;20443;-79
2023/12/14 01:08:22;;;;;;;2.22;1.38;;;9.00;99.90;;;;;;5005586;28;20057;-78
2023/12/14 01:10:48;;;;;;;3.78;1.40;;;9.00;99.90;;;;;;5005599;28;20498;-80
2023/12/14 01:13:15;;;;;;;3.05;1.48;;;9.00;99.90;;;;;;5005580;28;20050;-79
2023/12/14 01:15:42;;;;;;;2.47;1.50;;;9.00;99.90;;;;;;5007922;28;20065;-79
2023/12/14 01:18:08;;;;;;;1.80;1.52;;;9.00;99.90;;;;;;5007986;28;20094;-80
2023/12/14 01:20:35;;;;;;;1.45;1.20;;;9.00;99.90;;;;;;5006398;28;20046;-79
2023/12/14 01:23:02;;;;;;;3.35;1.33;;;9.00;99.90;;;;;;5004365;28;20116;-79
2023/12/14 01:25:29;;;;;;;2.17;1.35;;;9.00;99.90;;;;;;5011633;28;20052;-79
2023/12/14 01:27:56;;;;;;;2.17;1.50;;;8.90;99.90;;;;;;5011967;28;20084;-80
2023/12/14 01:30:23;;;;;;;1.38;1.27;;;8.90;99.90;;;;;;5011980;28;20054;-80
2023/12/14 01:32:50;;;;;;;3.08;1.30;;;8.90;99.90;;;;;;5007246;28;20092;-78
2023/12/14 01:35:17;;;;;;;2.63;1.75;;;8.90;99.90;;;;;;5011604;28;20104;-80
2023/12/14 01:37:43;;;;;;;2.85;1.40;;;8.90;99.90;;;;;;5008984;28;20445;-79
2023/12/14 01:40:11;;;;;;;2.35;1.52;;;8.90;99.90;;;;;;5010837;28;20042;-79
2023/12/14 01:42:37;;;;;;;2.45;1.35;;;8.90;99.90;;;;;;5014752;28;20583;-78
2023/12/14 01:45:05;;;;;;;2.42;1.50;;;8.90;99.90;;;;;;5011724;28;20054;-79
2023/12/14 01:47:32;;;;;;;2.58;1.90;;;8.90;99.90;;;;;;5023160;28;20100;-79
2023/12/14 01:49:59;;;;;;;2.13;1.42;;;8.90;99.90;;;;;;5008975;28;20050;-78
2023/12/14 01:52:25;;;;;;;2.15;1.50;;;8.90;99.90;;;;;;5009965;28;20051;-80
2023/12/14 01:54:52;;;;;;;7.68;1.70;;;8.90;99.90;;;;;;5008301;28;20073;-79
2023/12/14 01:57:19;;;;;;;2.38;1.40;;;8.90;99.90;;;;;;5011920;28;20046;-79
2023/12/14 01:59:45;;;;;;;3.60;1.63;;;8.90;99.90;;;;;;5009601;28;20096;-78
2023/12/14 02:02:12;;;;;;;2.80;1.85;;;8.90;99.90;;;;;;5025757;28;20145;-79
2023/12/14 02:04:39;;;;;;;2.08;1.20;;;8.90;99.90;;;;;;5009049;28;20052;-78
2023/12/14 02:07:06;;;;;;;3.13;1.52;;;8.80;99.90;;;;;;5008938;28;20050;-79
2023/12/14 02:09:33;;;;;;;3.78;2.03;;;8.80;99.90;;;;;;5013949;28;20041;-78
2023/12/14 02:11:59;;;;;;;4.20;1.60;;;8.80;99.90;;;;;;5008458;28;20085;-80
2023/12/14 02:14:26;;;;;;;5.72;2.85;;;8.80;99.90;;;;;;5007168;28;20398;-80
2023/12/14 02:16:53;;;;;;;2.95;1.77;;;8.80;99.90;;;;;;5010818;28;20096;-77
2023/12/14 02:19:20;;;;;;;3.38;1.60;;;8.80;99.90;;;;;;5008617;28;20049;-78
2023/12/14 02:21:47;;;;;;;5.20;1.50;;;8.80;99.90;;;;;;5010851;28;20054;-80
2023/12/14 02:24:13;;;;;;;4.57;1.90;;;8.80;99.90;;;;;;5007457;28;20049;-80
2023/12/14 02:26:40;;;;;;;3.70;1.65;;;8.70;99.90;;;;;;5013933;28;20042;-79
2023/12/14 02:29:07;;;;;;;2.38;1.70;;;8.70;99.90;;;;;;5012752;28;20057;-78
2023/12/14 02:31:33;;;;;;;2.22;1.50;;;8.70;99.90;;;;;;5014018;28;20050;-78
2023/12/14 02:34:00;;;;;;;1.83;1.60;;;8.70;99.90;;;;;;5010176;28;20049;-78
2023/12/14 02:36:27;;;;;;;5.20;1.75;;;8.70;99.90;;;;;;5007877;28;20050;-80
2023/12/14 02:38:53;;;;;;;2.17;1.52;;;8.70;99.90;;;;;;5009897;28;20085;-79
2023/12/14 02:41:20;;;;;;;1.85;1.63;;;8.70;99.90;;;;;;5006200;28;20477;-79
2023/12/14 02:43:47;;;;;;;3.25;2.08;;;8.70;99.90;;;;;;5012291;28;20053;-79
2023/12/14 02:46:15;;;;;;;4.20;1.77;;;8.80;99.90;;;;;;5011294;28;20052;-78
2023/12/14 02:48:43;;;;;;;2.45;1.85;;;8.70;99.90;;;;;;5011095;28;20056;-79
2023/12/14 02:51:16;;;;;;;4.57;1.88;;;8.70;99.90;;;;;;5008024;28;20050;-79
2023/12/14 02:53:43;;;;;;;1.92;1.40;;;8.70;99.90;;;;;;5009111;28;20104;-81
2023/12/14 02:56:11;;;;;;;3.38;1.60;;;8.70;99.90;;;;;;5006440;28;20049;-79
2023/12/14 02:58:38;;;;;;;2.53;1.77;;;8.70;99.90;;;;;;5009768;28;20046;-78
2023/12/14 03:01:05;;;;;;;4.15;1.95;;;8.70;99.90;;;;;;5007431;28;20076;-80
2023/12/14 03:03:32;;;;;;;2.58;1.80;;;8.70;99.90;;;;;;5008686;28;20434;-77
2023/12/14 03:05:59;;;;;;;2.95;1.60;;;8.70;99.90;;;;;;5008641;28;20050;-80
2023/12/14 03:08:25;;;;;;;2.33;1.48;;;8.70;99.90;;;;;;5006464;28;20054;-79
2023/12/14 03:10:52;;;;;;;3.22;1.80;;;8.70;99.90;;;;;;5009596;28;20049;-80
2023/12/14 03:13:19;;;;;;;5.47;2.10;;;8.70;99.90;;;;;;5005842;28;20050;-80
2023/12/14 03:15:46;;;;;;;3.25;1.67;;;8.70;99.90;;;;;;5011938;28;20548;-78
2023/12/14 03:18:13;;;;;;;1.83;1.60;;;8.80;99.90;;;;;;5004851;28;20054;-79
2023/12/14 03:20:40;;;;;;;3.50;1.70;;;8.80;99.90;;;;;;5008517;28;20042;-80
2023/12/14 03:23:06;;;;;;;2.95;2.30;;;8.70;99.90;;;;;;5013233;28;20513;-80
2023/12/14 03:25:33;;;;;;;1.88;1.67;;;8.70;99.90;;;;;;5010101;28;20053;-80
2023/12/14 03:28:00;;;;;;;3.75;1.73;;;8.70;99.90;;;;;;5007506;28;20045;-80
2023/12/14 03:30:26;;;;;;;3.08;1.85;;;8.70;99.90;;;;;;5009916;28;20042;-79
2023/12/14 03:32:53;;;;;;;2.78;1.67;;;8.70;99.90;;;;;;5007396;28;20547;-80
2023/12/14 03:35:20;;;;;;;4.07;1.67;;;8.70;99.90;;;;;;5008203;28;20046;-77
2023/12/14 03:37:47;;;;;;;2.10;1.42;;;8.80;99.90;;;;;;5011702;28;20049;-80
2023/12/14 03:40:14;;;;;;;3.88;1.55;;;8.80;99.90;;;;;;5008221;28;20050;-79
2023/12/14 03:42:40;;;;;;;2.10;1.60;;;8.80;99.90;;;;;;5010502;28;20050;-79
2023/12/14 03:45:07;;;;;;;2.53;1.63;;;8.80;99.90;;;;;;5006561;28;20104;-80
2023/12/14 03:47:35;;;;;;;2.28;1.60;;;8.80;99.90;;;;;;5009874;28;20506;-79
2023/12/14 03:50:01;;;;;;;2.28;1.55;;;8.80;99.90;;;;;;5004495;28;20103;-79
2023/12/14 03:52:31;;;;;;;3.50;1.73;;;8.80;99.90;;;;;;5008455;28;20051;-80
2023/12/14 03:54:58;;;;;;;1.73;1.52;;;8.80;99.90;;;;;;5005906;28;20045;-78
2023/12/14 03:57:24;;;;;;;2.53;1.70;;;8.80;99.90;;;;;;5008347;28;20042;-79
2023/12/14 03:59:51;;;;;;;2.50;1.58;;;8.80;99.90;;;;;;5009189;28;20052;-80
2023/12/14 04:02:18;;;;;;;3.30;1.50;;;8.80;99.90;;;;;;5008250;28;20530;-80
2023/12/14 04:04:46;;;;;;;2.72;1.58;;;8.80;99.90;;;;;;5005825;28;20508;-80
2023/12/14 04:07:13;;;;;;;2.42;1.77;;;8.80;99.90;;;;;;5006808;28;20149;-78
2023/12/14 04:09:40;;;;;;;2.92;1.65;;;8.70;99.90;;;;;;5012469;28;20089;-79
2023/12/14 04:12:07;;;;;;;2.55;1.80;;;8.70;99.90;;;;;;5008241;28;20050;-79
2023/12/14 04:14:34;;;;;;;5.22;2.05;;;8.70;99.90;;;;;;5009053;28;20050;-77
2023/12/14 04:17:00;;;;;;;2.75;1.95;;;8.70;99.90;;;;;;5011064;28;20046;-80
2023/12/14 04:19:27;;;;;;;2.97;1.83;;;8.70;99.90;;;;;;5009943;28;20465;-79
2023/12/14 04:21:54;;;;;;;4.32;2.13;;;8.80;99.90;;;;;;5007719;28;20414;-80
2023/12/14 04:24:22;;;;;;;3.55;2.08;;;8.70;99.90;;;;;;5008149;28;20088;-81
2023/12/14 04:26:48;;;;;;;2.72;2.15;;;8.70;99.90;;;;;;5003419;28;20050;-78
2023/12/14 04:29:15;;;;;;;2.95;1.98;;;8.80;99.90;;;;;;5005436;28;20046;-78
2023/12/14 04:31:42;;;;;;;2.05;1.85;;;8.80;99.90;;;;;;5011103;28;20073;-79
2023/12/14 04:34:13;;;;;;;3.47;1.90;;;8.80;99.90;;;;;;5005297;28;20136;-79
2023/12/14 04:36:40;;;;;;;2.05;1.73;;;8.80;99.90;;;;;;5005278;28;20137;-78
2023/12/14 04:39:07;;;;;;;4.15;2.38;;;8.80;99.90;;;;;;5004001;28;20093;-77
2023/12/14 04:41:34;;;;;;;3.53;1.80;;;8.80;99.90;;;;;;5005440;28;20050;-80
2023/12/14 04:44:01;;;;;;;3.65;2.55;;;8.80;99.90;;;;;;5007693;28;20100;-78
2023/12/14 04:46:27;;;;;;;3.20;2.28;;;8.80;99.90;;;;;;5004820;28;20053;-79
2023/12/14 04:48:55;;;;;;;4.07;2.30;;;8.80;99.90;;;;;;5007398;28;20049;-78
2023/12/14 04:51:22;;;;;;;5.15;2.00;;;8.80;99.90;;;;;;5007905;28;20046;-80
2023/12/14 04:53:48;;;;;;;6.50;2.28;;;8.80;99.90;;;;;;5007856;28;20088;-79
2023/12/14 04:56:15;;;;;;;4.75;2.20;;;8.80;99.90;;;;;;5007611;28;20048;-80
2023/12/14 04:58:42;;;;;;;4.57;2.20;;;8.80;99.90;;;;;;5006414;28;20050;-79
2023/12/14 05:01:09;;;;;;;2.95;2.58;;;8.80;99.90;;;;;;5011710;28;20100;-78
2023/12/14 05:03:36;;;;;;;3.85;2.40;;;8.80;99.90;;;;;;5009062;28;20046;-80
2023/12/14 05:06:03;;;;;;;3.63;2.60;;;8.90;99.90;;;;;;5014326;28;20417;-79
2023/12/14 05:08:30;;;;;;;5.18;2.92;;;8.80;99.90;;;;;;5006876;28;20052;-78
2023/12/14 05:10:56;;;;;;;5.90;2.90;;;8.90;99.90;;;;;;5013161;28;20050;-80
2023/12/14 05:13:23;;;;;;;6.43;2.08;;;8.90;99.90;;;;;;5014840;28;20046;-79
2023/12/14 05:15:51;;;;;;;3.67;2.42;;;8.90;99.90;;;;;;5016379;28;20046;-80
2023/12/14 05:18:18;;;;;;;3.47;2.50;;;8.90;99.90;;;;;;5008975;28;20092;-80
2023/12/14 05:20:45;;;;;;;3.53;2.10;;;8.90;99.90;;;;;;5012516;28;20058;-77
2023/12/14 05:23:12;;;;;;;6.45;2.75;;;8.90;99.90;;;;;;5008903;28;20126;-79
2023/12/14 05:25:39;;;;;;;4.05;3.17;;;8.80;99.90;;;;;;5009923;28;20422;-79
2023/12/14 05:28:06;;;;;;;5.57;2.67;;;8.80;99.90;;;;;;5011124;28;20077;-78
2023/12/14 05:30:32;;;;;;;6.13;2.88;;;8.80;99.90;;;;;;5008305;28;20049;-79
2023/12/14 05:32:59;;;;;;;6.03;2.78;;;8.80;99.90;;;;;;5012019;28;20056;-79
2023/12/14 05:35:26;;;;;;;3.70;2.47;;;8.80;99.90;;;;;;5012726;28;20053;-78
2023/12/14 05:37:53;;;;;;;3.13;2.28;;;8.80;99.90;;;;;;5013078;28;20109;-78
2023/12/14 05:40:19;;;;;;;4.18;2.50;;;8.80;99.90;;;;;;5006494;28;20046;-79
2023/12/14 05:42:46;;;;;;;3.35;2.20;;;8.80;99.90;;;;;;5014112;28;20100;-80
2023/12/14 05:45:13;;;;;;;3.00;1.50;;;8.80;99.90;;;;;;5009698;28;20096;-78
2023/12/14 05:47:41;;;;;;;2.33;1.80;;;8.80;99.90;;;;;;5013773;28;20051;-80
2023/12/14 05:50:09;;;;;;;2.85;2.00;;;8.80;99.90;;;;;;5009735;28;20048;-78
2023/12/14 05:52:37;;;;;;;3.35;2.08;;;8.80;99.90;;;;;;5010490;28;20042;-78
2023/12/14 05:55:07;;;;;;;4.72;2.20;;;8.80;99.90;;;;;;5015023;28;20052;-80
2023/12/14 05:57:33;;;;;;;5.57;2.35;;;8.80;99.90;;;;;;5009403;28;20046;-79
2023/12/14 06:00:00;;;;;;;3.20;2.00;;;8.80;99.90;;;;;;5011739;28;20096;-77
2023/12/14 06:02:27;;;;;;;4.47;2.40;;;8.80;99.90;;;;;;5008208;28;20042;-79
2023/12/14 06:04:54;;;;;;;2.80;2.08;;;8.80;99.90;;;;;;5005836;28;20059;-80
2023/12/14 06:07:20;;;;;;;2.28;1.95;;;8.70;99.90;;;;;;5007772;28;20051;-78
2023/12/14 06:09:47;;;;;;;1.92;1.70;;;8.70;99.90;;;;;;5013509;28;20085;-79
2023/12/14 06:12:14;;;;;;;3.47;2.28;;;8.70;99.90;;;;;;5008194;28;20042;-78
2023/12/14 06:14:41;;;;;;;6.18;2.45;;;8.70;99.90;;;;;;5010441;28;20034;-80
2023/12/14 06:17:07;;;;;;;2.72;2.00;;;8.70;99.90;;;;;;5014020;28;20042;-79
2023/12/14 06:19:34;;;;;;;5.15;2.03;;;8.70;99.90;;;;;;5007961;28;20038;-78
2023/12/14 06:22:01;;;;;;;2.92;1.60;;;8.70;99.90;;;;;;5007243;28;20050;-79
2023/12/14 06:24:28;;;;;;;2.88;1.60;;;8.70;99.90;;;;;;5009352;28;20437;-80
2023/12/14 06:26:54;;;;;;;4.00;1.88;;;8.70;99.90;;;;;;5007910;28;20501;-79
2023/12/14 06:29:21;;;;;;;4.28;1.92;;;8.70;99.90;;;;;;5008980;28;20082;-80
2023/12/14 06:31:48;;;;;;;1.65;1.50;;;8.70;99.90;;;;;;5025274;28;20092;-78
2023/12/14 06:34:15;;;;;;;2.75;1.60;;;8.70;99.90;;;;;;5005813;28;20081;-77
2023/12/14 06:36:43;;;;;;;2.13;1.65;;;8.70;99.90;;;;;;5008229;28;20046;-80
2023/12/14 06:39:10;;;;;;;2.25;1.45;;;8.70;99.90;;;;;;5008305;28;20049;-78
2023/12/14 06:41:37;;;;;;;3.83;1.90;;;8.70;99.90;;;;;;5010338;28;20047;-79
2023/12/14 06:44:04;;;;;;;4.72;2.00;;;8.60;99.90;;;;;;5008309;28;20049;-78
2023/12/14 06:46:31;;;;;;;3.33;1.70;;;8.60;99.90;;;;;;5009112;28;20173;-80
2023/12/14 06:48:58;;;;;;;3.38;1.42;;;8.60;99.90;;;;;;5008731;28;20065;-80
2023/12/14 06:51:24;;;;;;;1.95;1.55;;;8.60;99.90;;;;;;5008806;28;20460;-80
2023/12/14 06:53:51;;;;;;;2.40;1.73;;;8.60;99.90;;;;;;5007816;28;20049;-79
2023/12/14 06:56:18;;;;;;;3.22;1.60;;;8.60;99.90;;;;;;5011124;28;20038;-79
2023/12/14 06:58:45;;;;;;;3.47;2.72;;;8.60;99.90;;;;;;5005636;28;20046;-78
2023/12/14 07:01:17;;;;;;;4.28;1.30;;;8.60;99.90;;;;;;5007159;28;20070;-79
2023/12/14 07:03:45;;;;;;;2.60;1.75;;;8.60;99.90;;;;;;5013145;28;20050;-80
2023/12/14 07:06:13;;;;;;;2.35;1.80;;;8.50;99.90;;;;;;5006756;28;20072;-79
2023/12/14 07:08:41;;;;;;;2.78;1.88;;;8.50;99.90;;;;;;5007583;28;20046;-79
2023/12/14 07:11:09;;;;;;;5.28;1.63;;;8.50;99.90;;;;;;5009583;28;20041;-78
2023/12/14 07:13:38;;;;;;;4.07;2.13;;;8.50;99.90;;;;;;5009391;28;20038;-80
2023/12/14 07:16:10;;;;;;;3.55;1.90;;;8.50;99.90;;;;;;5008192;28;20048;-80
2023/12/14 07:18:37;;;;;;;2.58;1.95;;;8.50;99.90;;;;;;5008702;28;20410;-79
2023/12/14 07:21:05;;;;;;;3.58;1.90;;;8.50;99.90;;;;;;5007572;28;20069;-78
2023/12/14 07:23:32;;;;;;;3.35;2.10;;;8.50;99.90;;;;;;5007096;28;20057;-79
2023/12/14 07:25:59;;;;;;;3.47;2.03;;;8.50;99.90;;;;;;5006466;28;20045;-79
2023/12/14 07:28:29;;;;;;;;;;;8.50;99.90;;;;;;5009582;28;20096;-78
2023/12/14 07:30:56;;;;;;;3.38;2.38;;;8.50;99.90;;;;;;5006738;28;19957;-80
2023/12/14 07:33:23;;;;;;;8.88;3.00;;;8.50;99.90;;;;;;5009526;28;20421;-80
2023/12/14 07:35:51;;;;;;;5.85;3.15;;;8.50;99.90;;;;;;5008353;28;20062;-78
2023/12/14 07:38:17;;;;;;;6.00;3.10;;;8.50;99.90;;;;;;5008745;28;20046;-78
2023/12/14 07:40:45;;;;;;;7.28;3.30;;;8.50;99.90;;;;;;5012076;28;20049;-80
2023/12/14 07:43:11;;;;;;;6.43;4.43;;;8.50;99.90;;;;;;5009270;28;20050;-79
2023/12/14 07:45:38;;;;;;;4.05;3.38;;;8.50;99.90;;;;;;5006200;28;20073;-80
2023/12/14 07:48:05;;;;;;;5.80;3.85;;;8.40;99.90;;;;;;5008242;28;20046;-80
2023/12/14 07:50:32;;;;;;;6.65;3.47;;;8.50;99.90;;;;;;5008268;28;20054;-80
2023/12/14 07:52:59;;;;;;;9.70;3.83;;;8.50;99.90;;;;;;5008087;28;20074;-79
2023/12/14 07:55:26;;;;;;;6.90;3.15;;;8.50;99.90;;;;;;5008346;28;20446;-79
2023/12/14 07:57:52;;;;;;;5.28;3.40;;;8.50;99.90;;;;;;5006176;28;20101;-80
2023/12/14 08:00:19;;;;;;;6.95;3.65;;;8.50;99.90;;;;;;5011219;28;20041;-80
2023/12/14 08:02:46;;;;;;;6.85;4.30;;;8.50;99.90;;;;;;5022855;28;20050;-78
2023/12/14 08:05:12;;;;;;;4.57;3.80;;;8.50;99.90;;;;;;5012510;28;20165;-79
2023/12/14 08:07:39;;;;;;;7.43;3.78;;;8.50;99.90;;;;;;5007461;28;20494;-80
2023/12/14 08:10:07;;;;;;;5.28;3.80;;;8.50;99.90;;;;;;5008321;28;20058;-80
2023/12/14 08:12:34;;;;;;;7.18;3.83;;;8.50;99.90;;;;;;5004848;28;20520;-79
2023/12/14 08:15:01;;;;;;;8.23;5.05;;;8.60;99.90;;;;;;5007544;28;20038;-79
2023/12/14 08:17:28;;;;;;;8.63;4.85;;;8.60;99.90;;;;;;5006139;28;20483;-77
2023/12/14 08:19:55;;;;;;;7.20;4.57;;;8.60;99.90;;;;;;5007107;28;20069;-80
2023/12/14 08:22:21;;;;;;;7.07;4.32;;;8.60;99.90;;;;;;5009308;28;20141;-80
2023/12/14 08:24:49;;;;;;;5.65;4.13;;;8.60;99.90;;;;;;5005390;28;20170;-79
2023/12/14 08:27:16;;;;;;;5.60;4.22;;;8.60;99.90;;;;;;5008688;28;20046;-78
2023/12/14 08:29:45;;;;;;;6.13;3.78;;;8.60;99.90;;;;;;5009733;28;20042;-80
2023/12/14 08:32:12;;;;;;;6.00;4.20;;;8.70;99.90;;;;;;5009489;28;20527;-78
2023/12/14 08:34:40;;;;;;;5.55;3.90;;;8.60;99.90;;;;;;5004216;28;20457;-78
2023/12/14 08:37:07;;;;;;;4.80;3.95;;;8.70;99.90;;;;;;5010381;28;20046;-80
2023/12/14 08:39:34;;;;;;;5.25;3.83;;;8.70;99.90;;;;;;5003706;28;20042;-80
2023/12/14 08:42:01;;;;;;;6.65;3.75;;;8.70;99.90;;;;;;5009315;28;20050;-79
2023/12/14 08:44:27;;;;;;;4.90;3.42;;;8.70;99.90;;;;;;5012640;28;20042;-80
2023/12/14 08:46:54;;;;;;;6.15;3.70;;;8.70;99.90;;;;;;5008112;28;20055;-80
2023/12/14 08:49:23;;;;;;;6.18;3.83;;;8.70;99.90;;;;;;5008206;28;20050;-78
2023/12/14 08:51:50;;;;;;;7.65;3.85;;;8.70;99.90;;;;;;5011155;28;20073;-78
2023/12/14 08:54:17;;;;;;;7.20;4.40;;;8.70;99.90;;;;;;5008367;28;20046;-80
2023/12/14 08:56:44;;;;;;;7.55;4.13;;;8.70;99.90;;;;;;5005301;28;20042;-80
2023/12/14 08:59:10;;;;;;;6.65;3.00;;;8.70;99.90;;;;;;5007264;28;20046;-80
2023/12/14 09:01:37;;;;;;;11.15;4.43;;;8.70;99.90;;;;;;5003965;28;20046;-79
2023/12/14 09:04:04;;;;;;;4.40;3.45;;;8.70;99.90;;;;;;5010136;28;20046;-78
2023/12/14 09:06:31;;;;;;;6.90;4.15;;;8.70;99.90;;;;;;5004113;28;20077;-78
2023/12/14 09:08:58;;;;;;;5.00;3.00;;;8.70;99.90;;;;;;5008005;28;20058;-78
2023/12/14 09:11:24;;;;;;;4.68;2.85;;;8.70;99.90;;;;;;5003060;28;20050;-79
2023/12/14 09:13:51;;;;;;;5.43;3.28;;;8.70;99.90;;;;;;5007656;28;20077;-78
2023/12/14 09:16:18;;;;;;;4.45;2.95;;;8.80;99.90;;;;;;5007273;28;20552;-78
2023/12/14 09:18:45;;;;;;;3.90;3.15;;;8.80;99.90;;;;;;5012525;28;20104;-78
2023/12/14 09:21:11;;;;;;;4.18;2.80;;;8.90;99.90;;;;;;5006453;28;20050;-78
2023/12/14 09:23:40;;;;;;;4.25;3.10;;;8.90;99.90;;;;;;5013360;28;20050;-77
2023/12/14 09:26:07;;;;;;;5.18;3.00;;;8.90;99.90;;;;;;5013317;28;20457;-77
2023/12/14 09:28:34;;;;;;;6.05;3.33;;;8.90;99.90;;;;;;5009344;28;20045;-78
2023/12/14 09:31:00;;;;;;;5.07;2.83;;;9.00;99.90;;;;;;5009010;28;20046;-78
2023/12/14 09:33:30;;;;;;;9.75;2.90;;;9.00;99.90;;;;;;5010150;28;20100;-77
2023/12/14 09:35:57;;;;;;;4.38;2.78;;;9.00;99.90;;;;;;5009873;28;20068;-78
2023/12/14 09:38:23;;;;;;;7.32;2.40;;;9.00;99.90;;;;;;5004731;28;20067;-77
2023/12/14 09:40:50;;;;;;;5.50;3.05;;;9.00;99.90;;;;;;5012234;28;20047;-78
2023/12/14 09:43:17;;;;;;;3.45;2.38;;;9.10;99.90;;;;;;5008986;28;20050;-78
2023/12/14 09:45:45;;;;;;;5.50;2.65;;;9.10;99.90;;;;;;5010500;28;20108;-77
2023/12/14 09:48:14;;;;;;;3.25;2.67;;;9.10;99.90;;;;;;5011302;28;20050;-79
2023/12/14 09:50:42;;;;;;;3.65;2.58;;;9.10;99.90;;;;;;5013550;28;20192;-78
2023/12/14 09:53:09;;;;;;;3.65;2.40;;;9.20;99.90;;;;;;5010743;28;20038;-78
2023/12/14 09:55:36;;;;;;;4.68;2.78;;;9.20;99.90;;;;;;5012447;28;20490;-78
2023/12/14 09:58:03;;;;;;;4.32;2.22;;;9.20;99.90;;;;;;5008385;28;20073;-79
2023/12/14 10:00:34;;;;;;;3.35;2.58;;;9.20;99.90;;;;;;5009501;28;20042;-78
2023/12/14 10:03:23;;;;;;;3.15;2.20;;;9.20;99.90;;;;;;5010600;28;20521;-78
2023/12/14 10:05:50;;;;;;;4.57;2.80;;;9.20;99.90;;;;;;5014283;28;20536;-78
2023/12/14 10:08:18;;;;;;;4.13;1.95;;;9.30;99.90;;;;;;5017041;28;20046;-78
2023/12/14 10:10:48;;;;;;;2.95;2.35;;;9.30;99.90;;;;;;5010587;28;20090;-77
2023/12/14 10:13:15;;;;;;;5.68;2.17;;;9.30;99.90;;;;;;5013012;28;20130;-78
2023/12/14 10:15:44;;;;;;;4.47;2.28;;;9.40;99.90;;;;;;5017941;28;20073;-78
2023/12/14 10:18:11;;;;;;;2.15;1.85;;;9.40;99.90;;;;;;5025953;28;20045;-78
2023/12/14 10:20:38;;;;;;;2.85;2.10;;;9.40;99.90;;;;;;5022396;28;20045;-78
2023/12/14 10:23:07;;;;;;;2.92;2.05;;;9.40;99.90;;;;;;5019888;28;20109;-78
2023/12/14 10:25:35;;;;;;;2.88;2.00;;;9.50;99.90;;;;;;5015903;28;20054;-79
2023/12/14 10:28:03;;;;;;;4.85;3.00;;;9.50;99.90;;;;;;5011591;28;20050;-78
2023/12/14 10:30:30;;;;;;;4.07;2.80;;;9.50;99.90;;;;;;5014149;28;20045;-80
2023/12/14 10:33:00;;;;;;;;;;;9.60;99.90;;;;;;5015655;28;20100;-78
2023/12/14 10:35:27;;;;;;;2.65;2.15;;;9.70;99.90;;;;;;5014469;28;20354;-78
2023/12/14 10:37:58;;;;;;;3.15;1.90;;;9.70;99.90;;;;;;5015729;28;20042;-78
2023/12/14 10:40:26;;;;;;;2.55;2.10;;;9.80;99.90;;;;;;5015385;28;20061;-78
2023/12/14 10:42:54;;;;;;;4.68;2.53;;;9.80;99.90;;;;;;5008814;28;20094;-78
2023/12/14 10:45:24;;;;;;;3.10;2.15;;;9.80;99.90;;;;;;5016882;28;20494;-79
2023/12/14 10:47:53;;;;;;;3.58;2.33;;;9.90;99.90;;;;;;5018754;28;20050;-77
2023/12/14 10:50:21;;;;;;;2.42;1.98;;;9.90;99.90;;;;;;5020798;28;20057;-79
2023/12/14 10:52:48;;;;;;;2.20;1.80;;;9.80;99.90;;;;;;5017664;28;20497;-79
2023/12/14 10:55:40;;;;;;;3.30;2.10;;;9.80;99.90;;;;;;5006496;28;20049;-81
2023/12/14 10:58:09;;;;;;;2.45;2.15;;;9.80;99.90;;;;;;5011056;28;20053;-79
2023/12/14 11:00:36;;;;;;;2.47;2.25;;;9.80;99.90;;;;;;5011594;28;20046;-79
2023/12/14 11:03:06;;;;;;;2.10;1.58;;;9.90;99.90;;;;;;5018536;28;20421;-80
2023/12/14 11:05:34;;;;;;;2.25;2.00;;;9.90;99.90;;;;;;5012552;28;20049;-77
2023/12/14 11:08:03;;;;;;;3.67;2.00;;;9.90;99.90;;;;;;5014583;28;20118;-77
2023/12/14 11:11:01;;;;;;;3.97;2.10;;;9.90;99.90;;;;;;5009257;28;20046;-79
2023/12/14 11:13:31;;;;;;;3.13;2.17;;;9.90;99.90;;;;;;5014504;28;20038;-78
2023/12/14 11:16:00;;;;;;;4.18;2.25;;;9.90;99.90;;;;;;5017576;28;20042;-79
2023/12/14 11:18:27;;;;;;;5.10;1.80;;;9.90;99.90;;;;;;5018517;28;20092;-81
2023/12/14 11:20:58;;;;;;;3.65;2.50;;;9.90;99.90;;;;;;5035520;28;20058;-78
2023/12/14 11:23:25;;;;;;;3.83;3.10;;;9.90;99.90;;;;;;5013531;28;20116;-77
2023/12/14 11:25:54;;;;;;;3.63;2.70;;;9.90;99.90;;;;;;5014997;28;20129;-80
2023/12/14 11:28:28;;;;;;;4.78;2.67;;;9.90;99.90;;;;;;5016292;28;20469;-78
2023/12/14 11:30:56;;;;;;;3.53;2.15;;;10.00;99.90;;;;;;5015322;28;20046;-79
2023/12/14 11:33:24;;;;;;;23.35;12.15;;;10.00;99.90;;;;;;5010010;28;20042;-78
2023/12/14 11:35:54;;;;;;;17.48;9.43;;;10.00;99.90;;;;;;5012327;28;20060;-78
2023/12/14 11:38:23;;;;;;;4.75;2.80;;;10.10;99.90;;;;;;5012914;28;20038;-79
2023/12/14 11:40:50;;;;;;;2.97;2.20;;;10.10;99.90;;;;;;5014071;28;20061;-78
2023/12/14 11:43:20;;;;;;;3.25;2.45;;;10.10;99.90;;;;;;5011683;28;20057;-78
2023/12/14 11:45:48;;;;;;;2.63;2.28;;;10.10;99.90;;;;;;5015419;28;20145;-78
2023/12/14 11:48:16;;;;;;;5.13;2.78;;;10.10;99.90;;;;;;5013849;28;20076;-79
2023/12/14 11:50:44;;;;;;;2.97;2.03;;;10.10;99.90;;;;;;5012177;28;20045;-79
2023/12/14 11:53:11;;;;;;;2.55;2.20;;;10.10;99.90;;;;;;5012178;28;20065;-79
2023/12/14 11:55:41;;;;;;;5.28;2.80;;;10.10;99.90;;;;;;5009821;28;20045;-78
2023/12/14 11:58:11;;;;;;;4.67;2.60;;;10.00;99.90;;;;;;5026178;28;20042;-78
2023/12/14 12:00:39;;;;;;;4.22;2.70;;;10.00;99.90;;;;;;5010585;28;20041;-79
2023/12/14 12:03:11;;;;;;;3.30;2.33;;;10.00;99.90;;;;;;5019244;28;20046;-79
2023/12/14 12:05:46;;;;;;;2.50;2.05;;;10.00;99.90;;;;;;5013053;28;20098;-79
2023/12/14 12:08:16;;;;;;;6.80;3.13;;;10.00;99.90;;;;;;5031025;28;20129;-79
2023/12/14 12:10:43;;;;;;;4.93;2.88;;;10.00;99.90;;;;;;5012673;28;20049;-79
2023/12/14 12:13:14;;;;;;;4.80;2.75;;;10.00;99.90;;;;;;5012729;28;20047;-79
2023/12/14 12:15:40;;;;;;;6.85;2.90;;;10.00;99.90;;;;;;5009150;28;20050;-79
2023/12/14 12:18:09;;;;;;;6.88;3.55;;;10.10;99.90;;;;;;5011343;28;20042;-79
2023/12/14 12:20:36;;;;;;;5.40;3.75;;;10.10;99.90;;;;;;5014723;28;20045;-79
2023/12/14 12:23:03;;;;;;;4.53;2.95;;;10.10;99.90;;;;;;5017118;28;20076;-78
2023/12/14 12:25:31;;;;;;;4.88;3.08;;;10.20;99.90;;;;;;5018043;28;20046;-78
2023/12/14 12:27:59;;;;;;;3.00;2.65;;;10.20;99.90;;;;;;5011120;28;20046;-79
2023/12/14 12:30:26;;;;;;;4.22;2.70;;;10.30;99.90;;;;;;5015149;28;20068;-77
2023/12/14 12:32:53;;;;;;;8.20;3.38;;;10.30;99.90;;;;;;5013395;28;20425;-79
2023/12/14 12:35:20;;;;;;;4.45;2.90;;;10.30;99.90;;;;;;5017371;28;20076;-79
2023/12/14 12:37:53;;;;;;;3.30;2.33;;;10.30;99.90;;;;;;5011342;28;20532;-79
2023/12/14 12:40:21;;;;;;;3.63;2.53;;;10.30;99.90;;;;;;5022483;28;20046;-79
2023/12/14 12:42:48;;;;;;;5.22;1.85;;;10.30;99.90;;;;;;5023078;28;20085;-79
2023/12/14 12:45:17;;;;;;;4.10;2.47;;;10.30;99.90;;;;;;5018961;28;20501;-79
2023/12/14 12:47:44;;;;;;;3.10;2.38;;;10.30;99.90;;;;;;5017755;28;20049;-79
2023/12/14 12:50:12;;;;;;;3.40;2.80;;;10.40;99.90;;;;;;5022045;28;20061;-78
2023/12/14 12:52:40;;;;;;;4.55;3.03;;;10.30;99.90;;;;;;5017604;28;20048;-78
2023/12/14 12:55:07;;;;;;;5.07;2.30;;;10.30;99.90;;;;;;5019137;28;20052;-79
2023/12/14 12:57:36;;;;;;;2.05;1.77;;;10.30;99.90;;;;;;5022995;28;20026;-83